Terminal Aerodrome Forecast
Issued by NWS

Home | Current Version | Previous Version | Graphics & Text | Print | Product List | Glossary On
Versions: 1 2 3 4 5 6 7 8 9 10 11 12 13 14 15 16 17
000
FTUS41 KCLE 021700
TAFFDY
TAF
KFDY 021726Z 0218/0318 23010KT P6SM OVC050
      TEMPO 0218/0220 5SM -SHRA OVC015
     FM022000 27010KT P6SM BKN035
     FM030000 27004KT P6SM SCT250
      TEMPO 0309/0312 3SM BR=

USA.gov is the U.S. government's official web portal to all federal, state and local government web resources and services.